Time;durP1;ratioP1;P1;durP2;ratioP2;P2;SDS_P1;SDS_P2;PMS_P1;PMS_P2;Temp;Humidity;BMP_temperature;BMP_pressure;BME280_temperature;BME280_humidity;BME280_pressure;Samples;Min_cycle;Max_cycle;Signal;HPM_P1;HPM_P2
2023/06/23 00:00:28;;;;;;;11.48;7.25;;;;;;;18.35;100.00;101646.72;5058354;28;21490;-80
2023/06/23 00:02:54;;;;;;;8.27;6.00;;;;;;;18.37;100.00;101649.13;5051323;28;20032;-80
2023/06/23 00:05:20;;;;;;;9.55;6.50;;;;;;;18.39;100.00;101653.16;5073246;28;20055;-80
2023/06/23 00:07:46;;;;;;;6.47;4.90;;;;;;;18.29;100.00;101648.34;5053245;28;20167;-80
2023/06/23 00:10:11;;;;;;;9.75;5.03;;;;;;;18.12;100.00;101649.25;5067154;28;20036;-80
2023/06/23 00:12:41;;;;;;;11.60;7.63;;;;;;;18.02;100.00;101657.38;5048055;28;20498;-80
2023/06/23 00:15:08;;;;;;;10.10;5.32;;;;;;;18.11;100.00;101650.47;5070526;28;20067;-80
2023/06/23 00:17:36;;;;;;;8.38;5.57;;;;;;;18.01;100.00;101667.09;5078970;28;20507;-80
2023/06/23 00:20:03;;;;;;;8.82;5.32;;;;;;;18.10;100.00;101668.69;5067888;28;20039;-80
2023/06/23 00:22:29;;;;;;;7.35;5.10;;;;;;;18.18;100.00;101667.44;5069259;28;20396;-80
2023/06/23 00:24:54;;;;;;;8.38;5.90;;;;;;;18.13;100.00;101662.19;5076319;28;20024;-80
2023/06/23 00:27:20;;;;;;;9.30;6.97;;;;;;;17.91;100.00;101667.94;5064719;28;20443;-80
2023/06/23 00:29:46;;;;;;;8.45;5.57;;;;;;;18.09;100.00;101662.22;5077214;28;21585;-80
2023/06/23 00:32:11;;;;;;;10.00;7.25;;;;;;;18.15;100.00;101652.09;5055177;28;20083;-80
2023/06/23 00:34:37;;;;;;;6.60;5.50;;;;;;;18.11;100.00;101647.63;5062333;28;20056;-80
2023/06/23 00:37:02;;;;;;;6.32;5.20;;;;;;;18.28;100.00;101652.44;5066171;28;20499;-80
2023/06/23 00:39:28;;;;;;;8.45;5.82;;;;;;;18.38;100.00;101657.22;5074481;28;20043;-80
2023/06/23 00:41:53;;;;;;;12.18;5.57;;;;;;;18.16;100.00;101658.56;5072378;28;20039;-80
2023/06/23 00:44:19;;;;;;;10.10;6.70;;;;;;;17.98;100.00;101672.78;5074065;28;20545;-80
2023/06/23 00:46:45;;;;;;;11.57;5.90;;;;;;;18.04;100.00;101665.47;5074709;28;20040;-79
2023/06/23 00:49:14;;;;;;;11.15;7.20;;;;;;;17.97;100.00;101663.47;5064534;28;20035;-79
2023/06/23 00:51:40;;;;;;;7.80;6.25;;;;;;;18.06;100.00;101661.00;5070041;28;20524;-79
2023/06/23 00:54:06;;;;;;;10.65;6.50;;;;;;;18.13;100.00;101665.03;5050821;28;20097;-79
2023/06/23 00:56:33;;;;;;;12.40;6.22;;;;;;;18.10;100.00;101674.38;5072439;28;20028;-79
2023/06/23 00:58:58;;;;;;;7.85;5.60;;;;;;;17.98;100.00;101667.94;5071400;28;20234;-79
2023/06/23 01:01:24;;;;;;;9.32;6.43;;;;;;;18.16;100.00;101662.19;5072126;28;20435;-79
2023/06/23 01:03:49;;;;;;;11.23;8.15;;;;;;;17.94;100.00;101666.31;5054014;28;20056;-79
2023/06/23 01:06:37;;;;;;;7.53;5.93;;;;;;;18.04;100.00;101674.78;5049995;28;20035;-79
2023/06/23 01:09:25;;;;;;;9.85;7.13;;;;;;;17.94;100.00;101678.47;5079038;28;20035;-78
2023/06/23 01:12:11;;;;;;;11.90;6.50;;;;;;;17.97;100.00;101674.81;5002196;28;20044;-79
2023/06/23 01:15:13;;;;;;;11.48;7.78;;;;;;;17.78;100.00;101681.72;5061862;28;20377;-81
2023/06/23 01:18:16;;;;;;;11.98;8.00;;;;;;;17.79;100.00;101676.84;5067373;28;20103;-81
2023/06/23 01:20:46;;;;;;;9.82;6.55;;;;;;;17.94;100.00;101677.63;5053946;28;20125;-80
2023/06/23 01:23:14;;;;;;;10.93;8.05;;;;;;;17.65;100.00;101687.00;5066677;28;20099;-80
2023/06/23 01:26:15;;;;;;;9.73;7.13;;;;;;;17.88;100.00;101691.44;5071954;28;20073;-80
2023/06/23 01:28:50;;;;;;;15.10;8.30;;;;;;;17.82;100.00;101704.38;5057909;28;20036;-80
2023/06/23 01:31:31;;;;;;;12.18;8.40;;;;;;;17.75;100.00;101715.69;5054050;28;20028;-80
2023/06/23 01:34:01;;;;;;;14.52;9.32;;;;;;;17.89;100.00;101715.69;5062041;28;20024;-80
2023/06/23 01:36:37;;;;;;;9.60;7.40;;;;;;;17.92;100.00;101731.88;5074469;28;20036;-80
2023/06/23 01:39:06;;;;;;;15.38;10.13;;;;;;;17.84;100.00;101731.09;5067298;28;20072;-79
2023/06/23 01:41:38;;;;;;;12.60;9.40;;;;;;;17.90;100.00;101727.81;5080559;28;20085;-80
2023/06/23 01:44:09;;;;;;;11.25;8.55;;;;;;;17.93;100.00;101739.16;5073357;28;20032;-79
2023/06/23 01:46:36;;;;;;;12.50;8.55;;;;;;;18.12;100.00;101737.09;5074831;28;20036;-80
2023/06/23 01:49:10;;;;;;;12.05;9.30;;;;;;;18.03;100.00;101735.50;5078423;28;20399;-80
2023/06/23 01:51:39;;;;;;;12.50;8.27;;;;;;;18.05;100.00;101738.72;5070453;28;20423;-80
2023/06/23 01:54:06;;;;;;;16.10;9.65;;;;;;;17.86;100.00;101733.53;5079935;28;20032;-79
2023/06/23 01:56:32;;;;;;;14.18;9.60;;;;;;;17.87;100.00;101737.94;5073936;28;20430;-79
2023/06/23 01:59:00;;;;;;;18.80;11.00;;;;;;;17.81;100.00;101742.38;5079841;28;20036;-79
2023/06/23 02:01:29;;;;;;;16.20;11.38;;;;;;;17.48;100.00;101736.75;5068956;28;20033;-79
2023/06/23 02:03:56;;;;;;;19.75;11.23;;;;;;;17.45;100.00;101742.41;5075384;28;20063;-79
2023/06/23 02:06:22;;;;;;;15.60;10.70;;;;;;;17.73;100.00;101752.09;5076141;28;20423;-79
2023/06/23 02:08:49;;;;;;;17.60;12.40;;;;;;;17.51;100.00;101756.97;5073424;28;20106;-79
2023/06/23 02:11:16;;;;;;;18.48;11.98;;;;;;;17.64;100.00;101761.81;5072605;28;20125;-80
2023/06/23 02:13:44;;;;;;;19.33;12.18;;;;;;;17.68;100.00;101758.97;5074323;28;20639;-80
2023/06/23 02:16:13;;;;;;;22.13;13.57;;;;;;;17.92;100.00;101771.53;5061266;28;20036;-80
2023/06/23 02:18:40;;;;;;;16.42;11.32;;;;;;;17.83;100.00;101759.81;5068981;28;20544;-79
2023/06/23 02:21:07;;;;;;;19.98;12.32;;;;;;;17.64;100.00;101755.34;5074196;28;20027;-80
2023/06/23 02:23:34;;;;;;;17.83;12.07;;;;;;;17.74;100.00;101759.41;5059053;28;20031;-80
2023/06/23 02:26:01;;;;;;;23.20;16.38;;;;;;;17.29;100.00;101773.97;5056007;28;20032;-80
2023/06/23 02:28:27;;;;;;;26.70;16.52;;;;;;;17.42;100.00;101766.69;5072964;28;20032;-79
2023/06/23 02:30:53;;;;;;;22.65;16.23;;;;;;;17.61;100.00;101768.28;5069407;28;20024;-80
2023/06/23 02:33:18;;;;;;;21.42;13.60;;;;;;;17.73;100.00;101777.56;5075544;28;20404;-80
2023/06/23 02:35:44;;;;;;;28.35;16.98;;;;;;;17.31;100.00;101780.03;5057254;28;20040;-79
2023/06/23 02:38:15;;;;;;;22.30;14.73;;;;;;;17.54;100.00;101785.28;5080147;28;20026;-80
2023/06/23 02:40:43;;;;;;;23.40;14.40;;;;;;;17.87;100.00;101794.59;5071837;28;20037;-80
2023/06/23 02:43:17;;;;;;;26.13;16.10;;;;;;;17.45;100.00;101799.81;5070890;28;20118;-79
2023/06/23 02:45:46;;;;;;;21.63;14.75;;;;;;;17.81;100.00;101807.50;5074098;28;20039;-79
2023/06/23 02:48:42;;;;;;;25.50;16.33;;;;;;;17.45;100.00;101805.47;5060552;28;20024;-80
2023/06/23 02:51:14;;;;;;;25.13;14.55;;;;;;;17.68;100.00;101810.75;5069638;28;20036;-80
2023/06/23 02:53:48;;;;;;;22.25;15.88;;;;;;;17.85;100.00;101814.81;5070233;28;20032;-79
2023/06/23 02:56:23;;;;;;;19.73;13.38;;;;;;;18.04;100.00;101824.91;5070490;28;20365;-80
2023/06/23 02:58:51;;;;;;;25.45;18.52;;;;;;;17.64;100.00;101812.78;5049348;28;20476;-80
2023/06/23 03:01:21;;;;;;;23.70;15.68;;;;;;;17.79;100.00;101824.94;5075806;28;20475;-80
2023/06/23 03:03:47;;;;;;;19.85;14.15;;;;;;;17.82;100.00;101829.81;5060339;28;20035;-79
2023/06/23 03:06:20;;;;;;;28.48;17.45;;;;;;;17.74;100.00;101833.00;5074496;28;20047;-80
2023/06/23 03:08:47;;;;;;;23.75;16.10;;;;;;;17.85;100.00;101828.19;5072203;28;20084;-79
2023/06/23 03:11:15;;;;;;;28.40;17.75;;;;;;;17.79;100.00;101836.25;5077073;28;20056;-79
2023/06/23 03:13:41;;;;;;;26.80;16.08;;;;;;;17.84;100.00;101835.06;5074834;28;20051;-79
2023/06/23 03:16:11;;;;;;;22.15;15.32;;;;;;;17.86;100.00;101841.13;5055206;28;20055;-79
2023/06/23 03:18:40;;;;;;;28.25;19.23;;;;;;;17.70;100.00;101844.31;5074558;28;20039;-80
2023/06/23 03:21:08;;;;;;;24.98;18.42;;;;;;;17.53;100.00;101851.59;5056560;28;20055;-79
2023/06/23 03:23:38;;;;;;;31.73;20.50;;;;;;;17.70;100.00;101855.66;5070535;28;20515;-80
2023/06/23 03:26:08;;;;;;;28.95;18.77;;;;;;;17.79;100.00;101863.75;5044979;28;20036;-79
2023/06/23 03:28:36;;;;;;;27.58;17.55;;;;;;;17.81;100.00;101862.13;5060580;28;20110;-80
2023/06/23 03:31:12;;;;;;;30.13;20.20;;;;;;;17.76;100.00;101858.91;5067225;28;21176;-80
2023/06/23 03:33:42;;;;;;;28.13;18.65;;;;;;;17.84;100.00;101855.69;5073509;28;20463;-79
2023/06/23 03:36:12;;;;;;;30.92;20.20;;;;;;;17.81;100.00;101855.66;5069042;28;20511;-80
2023/06/23 03:38:45;;;;;;;32.08;22.27;;;;;;;17.88;100.00;101867.03;5070507;28;20051;-80
2023/06/23 03:41:12;;;;;;;31.60;20.00;;;;;;;17.87;100.00;101866.19;5067901;28;20110;-80
2023/06/23 03:43:54;;;;;;;36.70;22.25;;;;;;;17.88;100.00;101873.50;5084715;28;20016;-79
2023/06/23 03:46:24;;;;;;;33.38;21.00;;;;;;;17.80;100.00;101868.22;5093191;28;20419;-79
2023/06/23 03:48:54;;;;;;;33.00;20.67;;;;;;;17.76;100.00;101878.72;5059256;28;20107;-80
2023/06/23 03:51:22;;;;;;;34.97;21.58;;;;;;;17.54;100.00;101875.88;5096857;28;20084;-79
2023/06/23 03:53:51;;;;;;;38.20;24.02;;;;;;;17.59;100.00;101878.28;5085989;28;20039;-80
2023/06/23 03:56:18;;;;;;;39.58;24.95;;;;;;;17.67;100.00;101871.44;5093834;28;20036;-79
2023/06/23 03:58:46;;;;;;;34.75;22.90;;;;;;;17.45;100.00;101870.56;5087399;28;20030;-79
2023/06/23 04:01:13;;;;;;;44.17;26.90;;;;;;;17.47;100.00;101875.84;5091236;28;20551;-80
2023/06/23 04:03:40;;;;;;;39.10;25.15;;;;;;;17.61;100.00;101872.25;5075574;28;20410;-80
2023/06/23 04:06:07;;;;;;;41.75;25.33;;;;;;;17.63;100.00;101878.31;5088727;28;20387;-80
2023/06/23 04:08:35;;;;;;;38.28;24.65;;;;;;;17.50;100.00;101880.72;5092838;28;20035;-80
2023/06/23 04:11:03;;;;;;;40.38;25.73;;;;;;;17.62;100.00;101877.47;5091135;28;20085;-80
2023/06/23 04:13:31;;;;;;;36.65;24.50;;;;;;;17.71;100.00;101879.09;5092662;28;20061;-79
2023/06/23 04:15:59;;;;;;;41.80;25.88;;;;;;;17.57;100.00;101869.41;5068339;28;20038;-80
2023/06/23 04:18:26;;;;;;;35.75;23.88;;;;;;;17.60;100.00;101874.28;5088336;28;20027;-80
2023/06/23 04:20:55;;;;;;;34.90;23.40;;;;;;;17.78;100.00;101881.97;5088980;28;20027;-79
2023/06/23 04:23:22;;;;;;;34.17;22.55;;;;;;;17.88;100.00;101886.84;5091613;28;20023;-80
2023/06/23 04:25:50;;;;;;;33.58;22.52;;;;;;;17.73;100.00;101888.00;5077433;28;20023;-80
2023/06/23 04:28:18;;;;;;;33.67;21.55;;;;;;;17.87;100.00;101899.38;5089575;28;20027;-79
2023/06/23 04:30:44;;;;;;;44.20;25.83;;;;;;;17.72;100.00;101900.56;5091073;28;20114;-80
2023/06/23 04:33:10;;;;;;;37.13;25.02;;;;;;;17.81;100.00;101893.28;5090437;28;20514;-80
2023/06/23 04:35:36;;;;;;;45.90;25.30;;;;;;;17.80;100.00;101905.81;5096092;28;20039;-80
2023/06/23 04:38:14;;;;;;;35.00;22.08;;;;;;;17.84;100.00;101903.84;5066705;28;20034;-80
2023/06/23 04:40:58;;;;;;;37.50;23.15;;;;;;;17.76;100.00;101904.22;5084064;28;20040;-80
2023/06/23 04:43:36;;;;;;;35.17;23.02;;;;;;;17.86;100.00;101909.09;5087794;28;20038;-80
2023/06/23 04:46:20;;;;;;;38.00;22.23;;;;;;;17.67;100.00;101913.09;5100512;28;20028;-81
2023/06/23 04:48:53;;;;;;;38.15;25.63;;;;;;;17.73;100.00;101910.66;5070667;28;20055;-80
2023/06/23 04:51:21;;;;;;;;;;;;;;;17.46;100.00;101922.34;5091790;28;20050;-78
2023/06/23 04:53:56;;;;;;;36.83;22.98;;;;;;;17.61;100.00;101926.84;5090904;28;19920;-80
2023/06/23 04:56:25;;;;;;;37.67;21.40;;;;;;;17.81;100.00;101934.94;5093179;28;20035;-80
2023/06/23 04:58:54;;;;;;;39.88;24.02;;;;;;;17.61;100.00;101938.16;5077183;28;20028;-80
2023/06/23 05:01:20;;;;;;;38.13;23.80;;;;;;;17.72;100.00;101938.19;5097257;28;20043;-79
2023/06/23 05:03:52;;;;;;;33.55;20.60;;;;;;;17.54;100.00;101940.97;5091206;28;20031;-78
2023/06/23 05:06:18;;;;;;;32.28;20.33;;;;;;;17.72;100.00;101937.38;5090788;28;20028;-78
2023/06/23 05:08:47;;;;;;;32.65;21.35;;;;;;;17.53;100.00;101935.72;5073725;28;20531;-78
2023/06/23 05:11:14;;;;;;;34.15;21.90;;;;;;;17.47;100.00;101938.13;5097310;28;20849;-78
2023/06/23 05:13:41;;;;;;;33.78;20.25;;;;;;;17.62;100.00;101951.09;5087822;28;20372;-78
2023/06/23 05:16:10;;;;;;;33.50;19.35;;;;;;;17.71;100.00;101953.56;5102675;28;20036;-79
2023/06/23 05:18:37;;;;;;;32.15;19.77;;;;;;;17.76;100.00;101958.00;5105830;28;20080;-78
2023/06/23 05:21:05;;;;;;;37.10;19.38;;;;;;;17.49;100.00;101952.69;5098384;28;20042;-79
2023/06/23 05:23:37;;;;;;;32.78;19.35;;;;;;;17.73;100.00;101970.13;5095169;28;20020;-78
2023/06/23 05:26:06;;;;;;;28.02;17.85;;;;;;;17.86;100.00;101971.41;5098323;28;20141;-79
2023/06/23 05:28:35;;;;;;;34.10;19.30;;;;;;;17.96;100.00;101981.97;5094422;28;20023;-79
2023/06/23 05:31:03;;;;;;;32.65;20.00;;;;;;;17.73;100.00;101982.28;5096585;28;20024;-79
2023/06/23 05:33:32;;;;;;;32.17;18.55;;;;;;;17.76;100.00;101975.00;5094249;28;20036;-80
2023/06/23 05:35:59;;;;;;;24.88;16.75;;;;;;;17.81;100.00;101974.59;5094893;28;20535;-80
2023/06/23 05:38:27;;;;;;;32.28;19.48;;;;;;;17.73;100.00;101953.97;5096689;28;20050;-80
2023/06/23 05:40:53;;;;;;;29.05;18.15;;;;;;;17.87;100.00;101965.31;5091807;28;20019;-80
2023/06/23 05:43:18;;;;;;;31.83;17.20;;;;;;;17.96;100.00;101964.13;5095348;28;20036;-80
2023/06/23 05:45:43;;;;;;;25.45;15.40;;;;;;;18.04;100.00;101971.44;5084581;28;20600;-79
2023/06/23 05:48:33;;;;;;;28.95;16.67;;;;;;;17.97;100.00;101975.06;5084222;28;20496;-80
2023/06/23 05:51:04;;;;;;;26.70;16.15;;;;;;;18.03;100.00;101981.97;5094028;28;20028;-79
2023/06/23 05:53:30;;;;;;;22.20;14.13;;;;;;;18.04;100.00;101991.25;5102712;28;20037;-79
2023/06/23 05:56:08;;;;;;;27.52;15.68;;;;;;;18.16;100.00;101985.19;5101423;28;20486;-80
2023/06/23 05:58:40;;;;;;;27.55;15.75;;;;;;;18.18;100.00;101982.78;5078560;28;20035;-79
2023/06/23 06:01:10;;;;;;;25.73;15.02;;;;;;;18.18;100.00;101988.44;5095947;28;20035;-80
2023/06/23 06:03:46;;;;;;;29.75;15.73;;;;;;;18.07;100.00;101982.78;5086481;28;20042;-80
2023/06/23 06:06:13;;;;;;;27.58;16.38;;;;;;;17.95;100.00;101977.50;5075087;28;20023;-79
2023/06/23 06:08:40;;;;;;;25.08;14.73;;;;;;;18.06;100.00;101981.13;5094002;28;20102;-80
2023/06/23 06:11:09;;;;;;;19.42;11.75;;;;;;;18.40;100.00;101989.25;5091922;28;20041;-75
2023/06/23 06:13:40;;;;;;;27.50;15.68;;;;;;;18.51;100.00;101994.09;5093452;28;20080;-77
2023/06/23 06:16:08;;;;;;;24.47;14.43;;;;;;;18.62;100.00;101994.91;5088746;28;20027;-77
2023/06/23 06:18:36;;;;;;;26.92;16.58;;;;;;;18.64;100.00;102012.34;5106981;28;20272;-76
2023/06/23 06:21:02;;;;;;;22.85;13.10;;;;;;;18.61;100.00;102011.09;5107180;28;20031;-77
2023/06/23 06:23:31;;;;;;;24.45;13.27;;;;;;;18.56;100.00;102008.69;5098972;28;20028;-77
2023/06/23 06:25:58;;;;;;;19.83;11.70;;;;;;;18.54;100.00;102010.31;5092727;28;20031;-77
2023/06/23 06:28:26;;;;;;;19.25;12.90;;;;;;;18.75;100.00;102021.63;5101932;28;20031;-77
2023/06/23 06:30:54;;;;;;;21.42;12.90;;;;;;;18.73;100.00;102020.44;5084555;28;20387;-77
2023/06/23 06:33:21;;;;;;;21.98;12.48;;;;;;;19.03;100.00;102022.81;5090236;28;20822;-77
2023/06/23 06:35:51;;;;;;;18.55;11.70;;;;;;;19.34;100.00;102031.66;5095305;28;20089;-78
2023/06/23 06:38:16;;;;;;;16.38;10.07;;;;;;;19.36;100.00;102032.88;5094567;28;20076;-77
2023/06/23 06:40:46;;;;;;;16.80;10.50;;;;;;;19.26;100.00;102039.38;5079954;28;20525;-77
2023/06/23 06:43:12;;;;;;;15.18;10.43;;;;;;;19.48;100.00;102046.63;5091425;28;20035;-77
2023/06/23 06:45:37;;;;;;;17.40;10.27;;;;;;;19.35;100.00;102053.94;5087024;28;20032;-77
2023/06/23 06:48:04;;;;;;;16.00;9.85;;;;;;;19.20;100.00;102058.06;5099978;28;20028;-77
2023/06/23 06:50:31;;;;;;;21.17;9.13;;;;;;;19.47;100.00;102066.91;5099865;28;20063;-77
2023/06/23 06:52:58;;;;;;;17.00;9.93;;;;;;;19.37;100.00;102064.91;5098668;28;20144;-76
2023/06/23 06:55:24;;;;;;;15.80;9.85;;;;;;;19.41;100.00;102071.38;5098112;28;20376;-77
2023/06/23 06:57:49;;;;;;;12.10;9.02;;;;;;;19.42;100.00;102062.47;5100287;28;20031;-77
2023/06/23 07:00:20;;;;;;;15.88;9.55;;;;;;;19.43;100.00;102066.91;5071384;28;20024;-76
2023/06/23 07:02:46;;;;;;;11.43;7.82;;;;;;;19.67;100.00;102075.75;5097528;28;20042;-76
2023/06/23 07:05:12;;;;;;;17.08;8.35;;;;;;;19.79;100.00;102071.66;5100594;28;20027;-76
2023/06/23 07:07:38;;;;;;;14.73;8.90;;;;;;;19.82;100.00;102076.53;5093410;28;20115;-76
2023/06/23 07:10:04;;;;;;;13.02;8.07;;;;;;;19.98;100.00;102071.16;5108053;28;20471;-77
2023/06/23 07:12:31;;;;;;;14.90;9.13;;;;;;;20.18;100.00;102076.34;5093970;28;20333;-76
2023/06/23 07:14:56;;;;;;;11.13;7.22;;;;;;;20.12;100.00;102075.16;5105744;28;20027;-76
2023/06/23 07:17:22;;;;;;;15.60;8.25;;;;;;;19.92;100.00;102072.00;5103144;28;20582;-76
2023/06/23 07:19:47;;;;;;;13.30;8.07;;;;;;;19.98;100.00;102074.00;5098514;28;20031;-76
2023/06/23 07:22:13;;;;;;;11.60;7.22;;;;;;;20.10;100.00;102081.25;5096761;28;20111;-76
2023/06/23 07:24:38;;;;;;;11.35;7.50;;;;;;;20.07;100.00;102087.75;5101540;28;20036;-76
2023/06/23 07:27:04;;;;;;;9.50;6.45;;;;;;;19.97;100.00;102086.59;5095222;28;20070;-76
2023/06/23 07:29:30;;;;;;;11.73;7.10;;;;;;;19.99;100.00;102097.56;5095794;28;20466;-76
2023/06/23 07:31:56;;;;;;;11.57;6.70;;;;;;;20.05;100.00;102084.53;5094550;28;20154;-75
2023/06/23 07:34:22;;;;;;;14.27;7.30;;;;;;;20.18;100.00;102094.19;5100163;28;20027;-76
2023/06/23 07:36:47;;;;;;;10.32;6.50;;;;;;;20.23;100.00;102095.78;5097236;28;20988;-75
2023/06/23 07:39:12;;;;;;;10.18;7.13;;;;;;;20.49;100.00;102098.06;5100964;28;20035;-76
2023/06/23 07:41:39;;;;;;;11.40;6.20;;;;;;;20.40;100.00;102088.34;5099851;28;20111;-76
2023/06/23 07:44:04;;;;;;;13.18;6.72;;;;;;;20.47;100.00;102086.28;5077276;28;20108;-76
2023/06/23 07:46:30;;;;;;;10.32;6.45;;;;;;;20.71;100.00;102089.38;5089900;28;20440;-75
2023/06/23 07:48:55;;;;;;;11.32;7.45;;;;;;;20.47;100.00;102100.50;5093198;28;20556;-76
2023/06/23 07:51:21;;;;;;;12.52;6.57;;;;;;;20.63;100.00;102107.72;5097491;28;20438;-77
2023/06/23 07:53:46;;;;;;;12.05;7.97;;;;;;;20.63;100.00;102104.88;5095605;28;20023;-76
2023/06/23 07:56:12;;;;;;;9.90;6.78;;;;;;;20.65;100.00;102102.44;5093443;28;20471;-75
2023/06/23 07:58:40;;;;;;;10.02;6.15;;;;;;;20.78;100.00;102091.34;5090571;28;20470;-76
2023/06/23 08:01:06;;;;;;;12.15;7.00;;;;;;;20.83;100.00;102105.94;5071549;28;20649;-76
2023/06/23 08:03:32;;;;;;;9.48;5.63;;;;;;;20.92;100.00;102096.91;5091655;28;20031;-76
2023/06/23 08:05:58;;;;;;;10.85;6.57;;;;;;;20.92;98.76;102092.03;5087276;28;20035;-76
2023/06/23 08:08:23;;;;;;;9.38;5.93;;;;;;;20.97;96.69;102087.09;5080070;28;20034;-76
2023/06/23 08:10:49;;;;;;;9.45;6.22;;;;;;;21.09;97.97;102092.28;5092435;28;20063;-76
2023/06/23 08:13:14;;;;;;;8.55;6.10;;;;;;;21.06;97.81;102093.09;5095810;28;20213;-77
2023/06/23 08:15:41;;;;;;;9.80;5.95;;;;;;;21.00;95.61;102095.63;5092469;28;20042;-76
2023/06/23 08:18:06;;;;;;;7.70;5.20;;;;;;;21.05;90.20;102094.34;5096912;28;20028;-76
2023/06/23 08:20:32;;;;;;;9.25;5.10;;;;;;;21.21;94.32;102100.28;5093691;28;20472;-76
2023/06/23 08:22:57;;;;;;;7.85;5.43;;;;;;;21.25;92.36;102106.75;5097322;28;20028;-76
2023/06/23 08:25:22;;;;;;;10.15;5.65;;;;;;;21.21;95.10;102106.00;5093876;28;20042;-76
2023/06/23 08:27:48;;;;;;;7.43;5.13;;;;;;;21.31;94.32;102105.06;5099122;28;20019;-77
2023/06/23 08:30:15;;;;;;;8.93;5.53;;;;;;;21.26;93.29;102116.09;5073694;28;20480;-76
2023/06/23 08:32:41;;;;;;;8.98;5.05;;;;;;;21.32;91.80;102118.06;5088895;28;20047;-76
2023/06/23 08:35:07;;;;;;;7.80;5.03;;;;;;;21.45;93.27;102109.81;5098545;28;20035;-76
2023/06/23 08:37:32;;;;;;;8.10;4.35;;;;;;;21.53;89.40;102102.00;5093469;28;20073;-76
2023/06/23 08:39:58;;;;;;;8.88;4.45;;;;;;;21.55;91.93;102116.63;5076887;28;20032;-76
2023/06/23 08:42:33;;;;;;;9.25;4.53;;;;;;;21.74;91.69;102122.94;5091354;28;20063;-76
2023/06/23 08:45:02;;;;;;;4.18;3.50;;;;;;;21.63;91.28;102126.72;5080909;28;20750;-76
2023/06/23 08:47:29;;;;;;;6.40;5.05;;;;;;;21.62;86.17;102133.63;5094970;28;20063;-76
2023/06/23 08:49:55;;;;;;;5.53;3.63;;;;;;;21.84;91.74;102127.69;5079620;28;20038;-76
2023/06/23 08:52:21;;;;;;;5.70;3.90;;;;;;;21.75;85.95;102130.25;5084071;28;20028;-76
2023/06/23 08:54:47;;;;;;;7.60;3.67;;;;;;;22.05;92.33;102133.13;5101220;28;20036;-76
2023/06/23 08:57:13;;;;;;;5.50;3.38;;;;;;;22.13;87.61;102126.06;5091031;28;20106;-76
2023/06/23 08:59:38;;;;;;;5.10;3.90;;;;;;;22.19;88.71;102131.28;5097241;28;20539;-76
2023/06/23 09:02:04;;;;;;;6.40;3.53;;;;;;;22.00;89.18;102136.44;5089668;28;20028;-77
2023/06/23 09:04:29;;;;;;;5.05;3.83;;;;;;;22.22;87.10;102141.84;5093579;28;20036;-76
2023/06/23 09:06:54;;;;;;;5.45;3.17;;;;;;;22.14;78.76;102141.16;5077580;28;20028;-76
2023/06/23 09:09:20;;;;;;;5.38;3.40;;;;;;;22.17;81.02;102142.31;5092429;28;20032;-76
2023/06/23 09:11:45;;;;;;;4.55;3.60;;;;;;;22.23;85.38;102141.44;5091411;28;20047;-77
2023/06/23 09:14:11;;;;;;;6.15;4.47;;;;;;;22.33;85.17;102151.09;5087749;28;20178;-77
2023/06/23 09:16:39;;;;;;;6.18;3.53;;;;;;;22.30;86.40;102144.22;5095243;28;20118;-77
2023/06/23 09:19:06;;;;;;;6.72;4.53;;;;;;;22.16;84.13;102146.41;5089780;28;20468;-76
2023/06/23 09:21:34;;;;;;;6.43;4.78;;;;;;;22.35;85.90;102157.19;5094601;28;20038;-77
2023/06/23 09:24:03;;;;;;;9.07;4.93;;;;;;;22.46;87.78;102157.81;5096431;28;20016;-76
2023/06/23 09:26:49;;;;;;;6.32;3.80;;;;;;;22.47;87.80;102170.88;5093184;28;20551;-76
2023/06/23 09:29:15;;;;;;;5.07;3.75;;;;;;;22.57;85.59;102166.22;5092874;28;20032;-76
2023/06/23 09:31:41;;;;;;;5.63;3.53;;;;;;;22.71;88.42;102173.78;5094928;28;20047;-76
2023/06/23 09:34:06;;;;;;;5.03;3.95;;;;;;;22.72;86.19;102173.31;5104663;28;20381;-77
2023/06/23 09:36:36;;;;;;;4.90;3.63;;;;;;;22.60;90.39;102168.22;5087007;28;20027;-77
2023/06/23 09:39:03;;;;;;;7.03;4.38;;;;;;;22.73;88.24;102171.28;5098298;28;20403;-77
2023/06/23 09:41:33;;;;;;;6.50;4.20;;;;;;;22.83;87.90;102170.31;5089692;28;20712;-77
2023/06/23 09:43:59;;;;;;;6.22;3.90;;;;;;;22.94;89.68;102170.94;5095348;28;20035;-76
2023/06/23 09:46:27;;;;;;;6.32;4.28;;;;;;;23.05;88.25;102187.91;5092775;28;20032;-77
2023/06/23 09:48:53;;;;;;;6.22;4.15;;;;;;;22.70;84.71;102175.78;5081669;28;20543;-77
2023/06/23 09:51:19;;;;;;;8.32;4.90;;;;;;;22.89;82.77;102179.97;5091060;28;20024;-77
2023/06/23 09:53:45;;;;;;;4.78;3.80;;;;;;;22.87;80.53;102179.59;5092328;28;20600;-77
2023/06/23 09:56:16;;;;;;;5.00;3.78;;;;;;;22.73;80.52;102194.94;5092323;28;20500;-76
2023/06/23 09:58:43;;;;;;;6.30;4.63;;;;;;;22.93;80.90;102192.16;5095566;28;20032;-76
2023/06/23 10:01:10;;;;;;;7.53;5.65;;;;;;;22.56;89.41;102189.47;5098762;28;20455;-77
2023/06/23 10:03:52;;;;;;;7.38;5.05;;;;;;;22.81;90.06;102191.94;5099192;28;20028;-77
2023/06/23 10:06:26;;;;;;;7.78;4.85;;;;;;;23.08;89.02;102197.66;5086520;28;20230;-77
2023/06/23 10:08:59;;;;;;;9.30;5.57;;;;;;;23.02;87.24;102191.66;5100767;28;20451;-76
2023/06/23 10:11:51;;;;;;;6.63;4.93;;;;;;;22.86;88.67;102197.19;5104802;28;20043;-76
2023/06/23 10:14:18;;;;;;;6.03;4.57;;;;;;;23.07;87.11;102196.88;5095020;28;20679;-76
2023/06/23 10:16:44;;;;;;;6.38;3.67;;;;;;;23.18;84.85;102190.16;5099863;28;20383;-76
2023/06/23 10:19:11;;;;;;;7.20;3.88;;;;;;;23.41;80.74;102193.00;5098324;28;20023;-76
2023/06/23 10:21:37;;;;;;;5.38;4.32;;;;;;;23.51;79.18;102209.16;5095411;28;20029;-76
2023/06/23 10:24:05;;;;;;;6.93;4.00;;;;;;;23.74;79.12;102201.78;5103437;28;20027;-76
2023/06/23 10:26:34;;;;;;;4.75;3.08;;;;;;;23.82;79.47;102199.63;5099804;28;20077;-76
2023/06/23 10:29:04;;;;;;;4.43;3.22;;;;;;;23.55;82.82;102203.38;5079009;28;20078;-76
2023/06/23 10:31:31;;;;;;;4.25;3.03;;;;;;;23.78;79.80;102204.59;5075503;28;20045;-76
2023/06/23 10:34:01;;;;;;;4.38;3.53;;;;;;;23.60;82.19;102205.72;5084823;28;20127;-77
2023/06/23 10:36:30;;;;;;;4.95;3.42;;;;;;;23.78;81.12;102216.03;5080490;28;21530;-76
2023/06/23 10:38:59;;;;;;;5.65;3.72;;;;;;;23.58;76.65;102218.84;5074262;28;20392;-76
2023/06/23 10:41:26;;;;;;;4.75;3.63;;;;;;;23.72;79.41;102218.56;5079724;28;20034;-76
2023/06/23 10:43:54;;;;;;;4.20;3.53;;;;;;;23.70;81.53;102210.44;5063242;28;20395;-77
2023/06/23 10:46:22;;;;;;;4.80;3.67;;;;;;;23.92;80.97;102210.03;5075231;28;20362;-76
2023/06/23 10:48:47;;;;;;;4.18;3.10;;;;;;;23.93;76.85;102208.81;5084526;28;20039;-76
2023/06/23 10:51:13;;;;;;;5.05;3.72;;;;;;;23.86;73.15;102206.06;5078244;28;20067;-76
2023/06/23 10:53:57;;;;;;;5.88;3.55;;;;;;;23.92;76.49;102216.56;5062809;28;20063;-76
2023/06/23 10:56:32;;;;;;;7.70;4.35;;;;;;;23.84;71.72;102217.94;5076019;28;20476;-76
2023/06/23 10:58:58;;;;;;;3.78;3.35;;;;;;;24.03;69.92;102216.34;5079674;28;20111;-77
2023/06/23 11:01:26;;;;;;;5.40;3.28;;;;;;;24.15;74.13;102215.69;5076434;28;20458;-77
2023/06/23 11:03:53;;;;;;;8.40;4.00;;;;;;;24.05;67.85;102218.75;5072481;28;20028;-76
2023/06/23 11:06:34;;;;;;;5.82;3.25;;;;;;;24.00;68.74;102216.44;5074705;28;20476;-76
2023/06/23 11:09:01;;;;;;;4.15;2.75;;;;;;;23.65;66.61;102215.84;5056237;28;20438;-77
2023/06/23 11:11:31;;;;;;;4.20;3.00;;;;;;;24.27;57.67;102224.84;5070766;28;20036;-77
2023/06/23 11:13:57;;;;;;;4.50;2.67;;;;;;;24.17;55.58;102225.88;5077191;28;20040;-77
2023/06/23 11:16:31;;;;;;;3.90;2.80;;;;;;;24.11;64.82;102228.44;5082381;28;20019;-77
2023/06/23 11:18:57;;;;;;;4.03;2.40;;;;;;;24.43;57.57;102227.75;5079798;28;20388;-77